Lincolnville, Kansas
Current Conditions -  °F | °C
As of 9:55 PM on Sunday 23 Nov 2014 (Local Time) from KEWK Reporting Station
Clear Clear  
Wind Chill:   Ceiling: Unl
Heat Index:   Visibility: 10mi
Dew Point: -1°   Wind: 14mph
Humidity: 70%   Direction: 330°NNW
Pressure: 29.65"   Gusts: NA
Location:  38.49°N, 96.96°W
Report Text: KEWK 240355Z AUTO 33012KT 10SM CLR 04/M01 A2965 RMK AO1
Loading
Personal Weather Stations






























Interactive Weather Map New forecast layout! Learn more

10-Day Weather Forecast

Advertisements
Track Severe Weather on mobile